createdAt,value
2019-05-01T00:00:27.095Z,20.57
2019-05-01T00:02:59.918Z,20.30
2019-05-01T00:05:32.147Z,15.48
2019-05-01T00:08:02.001Z,12.98
2019-05-01T00:10:31.694Z,14.47
2019-05-01T00:13:01.497Z,14.13
2019-05-01T00:15:33.051Z,9.73
2019-05-01T00:18:02.741Z,14.07
2019-05-01T00:20:32.368Z,12.18
2019-05-01T00:23:02.028Z,10.80
2019-05-01T00:25:32.023Z,20.92
2019-05-01T00:28:01.598Z,12.98
2019-05-01T00:30:32.213Z,13.35
2019-05-01T00:33:02.134Z,17.15
2019-05-01T00:35:32.113Z,13.53
2019-05-01T00:38:02.001Z,16.02
2019-05-01T00:40:31.715Z,17.07
2019-05-01T00:43:01.432Z,14.30
2019-05-01T00:45:30.991Z,11.88
2019-05-01T00:48:00.534Z,11.55
2019-05-01T00:50:30.143Z,12.00
2019-05-01T00:52:59.687Z,14.53
2019-05-01T00:55:39.876Z,16.65
2019-05-01T00:58:27.935Z,11.63
2019-05-01T01:01:15.371Z,13.93
2019-05-01T01:03:45.095Z,13.65
2019-05-01T01:06:14.941Z,13.53
2019-05-01T01:08:44.671Z,11.00
2019-05-01T01:11:14.261Z,14.63
2019-05-01T01:13:43.937Z,15.80
2019-05-01T01:16:13.433Z,11.97
2019-05-01T01:18:43.033Z,11.60
2019-05-01T01:21:12.606Z,12.43
2019-05-01T01:23:42.219Z,14.70
2019-05-01T01:26:11.923Z,14.83
2019-05-01T01:28:41.466Z,9.85
2019-05-01T01:31:11.152Z,13.68
2019-05-01T01:33:40.850Z,13.85
2019-05-01T01:36:10.585Z,13.43
2019-05-01T01:38:40.205Z,12.37
2019-05-01T01:41:09.643Z,11.48
2019-05-01T01:43:59.255Z,13.80
2019-05-01T01:46:30.305Z,12.55
2019-05-01T01:49:00.108Z,13.28
2019-05-01T01:51:29.575Z,20.10
2019-05-01T01:54:01.356Z,14.38
2019-05-01T01:56:30.950Z,11.30
2019-05-01T01:59:00.649Z,15.53
2019-05-01T02:01:34.607Z,19.45
2019-05-01T02:04:17.791Z,14.33
2019-05-01T02:06:48.120Z,12.93
2019-05-01T02:09:18.640Z,13.05
2019-05-01T02:11:48.370Z,14.28
2019-05-01T02:14:17.868Z,12.55
2019-05-01T02:16:47.222Z,12.33
2019-05-01T02:19:17.223Z,16.87
2019-05-01T02:21:47.999Z,13.78
2019-05-01T02:24:17.743Z,19.23
2019-05-01T02:26:54.742Z,14.53
2019-05-01T02:29:31.407Z,12.68
2019-05-01T02:32:00.760Z,14.18
2019-05-01T02:34:30.321Z,15.03
2019-05-01T02:37:00.043Z,12.75
2019-05-01T02:39:29.734Z,13.22
2019-05-01T02:42:00.084Z,12.73
2019-05-01T02:44:35.825Z,14.83
2019-05-01T02:47:07.071Z,11.97
2019-05-01T02:49:53.647Z,13.62
2019-05-01T02:52:25.079Z,11.70
2019-05-01T02:54:54.831Z,12.58
2019-05-01T02:57:24.572Z,13.40
2019-05-01T02:59:54.344Z,15.55
2019-05-01T03:02:25.026Z,14.68
2019-05-01T03:04:54.731Z,14.83
2019-05-01T03:07:24.543Z,13.00
2019-05-01T03:09:54.001Z,15.28
2019-05-01T03:12:23.587Z,13.18
2019-05-01T03:14:53.094Z,17.42
2019-05-01T03:17:39.387Z,17.60
2019-05-01T03:20:25.920Z,20.12
2019-05-01T03:23:15.602Z,17.53
2019-05-01T03:25:45.076Z,15.50
2019-05-01T03:28:14.619Z,13.28
2019-05-01T03:30:44.534Z,16.20
2019-05-01T03:33:14.282Z,15.00
2019-05-01T03:35:43.831Z,13.88
2019-05-01T03:38:13.521Z,16.50
2019-05-01T03:40:43.029Z,15.65
2019-05-01T03:43:13.137Z,21.05
2019-05-01T03:45:43.289Z,13.78
2019-05-01T03:48:13.017Z,15.60
2019-05-01T03:50:46.162Z,17.98
2019-05-01T03:53:13.906Z,14.67
2019-05-01T03:55:43.490Z,17.85
2019-05-01T03:58:12.984Z,17.20
2019-05-01T04:00:48.267Z,15.25
2019-05-01T04:03:19.411Z,21.17
2019-05-01T04:05:49.172Z,17.25
2019-05-01T04:08:18.890Z,19.05
2019-05-01T04:10:49.042Z,16.85
2019-05-01T04:13:18.543Z,21.80
2019-05-01T04:15:48.240Z,20.55
2019-05-01T04:18:17.884Z,27.30
2019-05-01T04:20:47.351Z,17.55
2019-05-01T04:23:16.866Z,21.37
2019-05-01T04:25:47.099Z,18.35
2019-05-01T04:28:33.749Z,20.40
2019-05-01T04:31:05.480Z,15.83
2019-05-01T04:33:36.689Z,14.93
2019-05-01T04:36:17.167Z,17.92
2019-05-01T04:38:46.982Z,14.10
2019-05-01T04:41:16.517Z,14.93
2019-05-01T04:43:46.088Z,16.02
2019-05-01T04:46:15.862Z,15.65
2019-05-01T04:48:45.239Z,16.15
2019-05-01T04:51:15.102Z,16.05
2019-05-01T04:53:44.759Z,15.40
2019-05-01T04:56:14.848Z,16.60
2019-05-01T04:58:45.204Z,19.00
2019-05-01T05:01:15.321Z,12.65
2019-05-01T05:03:44.912Z,17.55
2019-05-01T05:06:15.123Z,15.30
2019-05-01T05:08:44.735Z,21.85
2019-05-01T05:11:18.910Z,15.35
2019-05-01T05:14:06.068Z,15.72
2019-05-01T05:16:55.532Z,15.70
2019-05-01T05:19:25.078Z,19.27
2019-05-01T05:21:54.513Z,18.90
2019-05-01T05:24:24.187Z,19.50
2019-05-01T05:26:53.835Z,15.88
2019-05-01T05:29:23.338Z,15.38
2019-05-01T05:31:52.858Z,16.23
2019-05-01T05:34:22.906Z,17.60
2019-05-01T05:36:54.322Z,14.95
2019-05-01T05:39:29.547Z,16.23
2019-05-01T05:41:59.067Z,14.75
2019-05-01T05:44:28.552Z,17.00
2019-05-01T05:46:58.130Z,16.57
2019-05-01T05:49:27.705Z,16.97
2019-05-01T05:52:17.468Z,16.37
2019-05-01T05:54:53.147Z,18.80
2019-05-01T05:57:24.584Z,16.82
2019-05-01T05:59:56.355Z,14.18
2019-05-01T06:02:30.882Z,17.45
2019-05-01T06:05:19.198Z,16.32
2019-05-01T06:08:06.673Z,15.83
2019-05-01T06:10:40.212Z,18.02
2019-05-01T06:13:23.791Z,18.35
2019-05-01T06:16:12.364Z,17.67
2019-05-01T06:18:46.917Z,15.35
2019-05-01T06:21:18.389Z,12.80
2019-05-01T06:23:52.713Z,19.98
2019-05-01T06:26:37.602Z,17.40
2019-05-01T06:29:03.525Z,16.80
2019-05-01T06:31:33.309Z,16.15
2019-05-01T06:34:02.905Z,16.65
2019-05-01T06:36:32.768Z,15.55
2019-05-01T06:39:06.936Z,15.43
2019-05-01T06:41:42.241Z,17.70
2019-05-01T06:44:12.836Z,17.02
2019-05-01T06:46:44.182Z,16.27
2019-05-01T06:49:32.227Z,12.73
2019-05-01T06:52:03.421Z,15.78
2019-05-01T06:54:33.068Z,14.55
2019-05-01T06:57:02.635Z,12.95
2019-05-01T06:59:33.402Z,14.98
2019-05-01T07:02:03.434Z,13.32
2019-05-01T07:04:38.130Z,14.95
2019-05-01T07:07:09.857Z,13.45
2019-05-01T07:09:38.130Z,13.28
2019-05-01T07:12:09.178Z,12.13
2019-05-01T07:14:38.820Z,16.07
2019-05-01T07:17:09.061Z,21.52
2019-05-01T07:19:50.026Z,15.48
2019-05-01T07:22:19.975Z,13.45
2019-05-01T07:24:49.558Z,12.68
2019-05-01T07:27:23.929Z,13.80
2019-05-01T07:29:51.828Z,13.45
2019-05-01T07:32:22.445Z,13.38
2019-05-01T07:34:52.054Z,11.65
2019-05-01T07:37:25.995Z,12.43
2019-05-01T07:39:52.594Z,13.10
2019-05-01T07:42:26.829Z,12.37
2019-05-01T07:45:14.834Z,13.62
2019-05-01T07:47:46.130Z,15.13
2019-05-01T07:50:16.928Z,12.37
2019-05-01T07:52:47.769Z,11.35
2019-05-01T07:55:20.091Z,12.23
2019-05-01T07:57:49.841Z,10.88
2019-05-01T08:00:42.656Z,12.55
2019-05-01T08:03:12.762Z,8.48
2019-05-01T08:05:45.457Z,12.30
2019-05-01T08:08:13.797Z,10.50
2019-05-01T08:10:43.699Z,11.38
2019-05-01T08:13:13.199Z,11.80
2019-05-01T08:15:42.923Z,9.05
2019-05-01T08:18:14.226Z,11.18
2019-05-01T08:20:54.673Z,17.48
2019-05-01T08:23:24.417Z,11.75
2019-05-01T08:25:54.155Z,8.93
2019-05-01T08:28:31.932Z,9.60
2019-05-01T08:31:23.045Z,10.23
2019-05-01T08:33:54.948Z,9.13
2019-05-01T08:36:24.675Z,7.70
2019-05-01T08:38:54.341Z,11.15
2019-05-01T08:41:27.098Z,4.70
2019-05-01T08:43:55.962Z,11.48
2019-05-01T08:46:38.913Z,8.58
2019-05-01T08:49:16.443Z,11.10
2019-05-01T08:51:45.871Z,7.20
2019-05-01T08:54:15.435Z,10.88
2019-05-01T08:56:44.818Z,8.05
2019-05-01T08:59:14.386Z,6.37
2019-05-01T09:01:45.719Z,7.28
2019-05-01T09:04:15.013Z,7.17
2019-05-01T09:06:45.202Z,7.85
2019-05-01T09:09:14.896Z,10.82
2019-05-01T09:11:44.335Z,4.72
2019-05-01T09:14:13.840Z,6.00
2019-05-01T09:16:43.365Z,5.83
2019-05-01T09:19:12.825Z,4.65
2019-05-01T09:21:42.596Z,5.08
2019-05-01T09:24:12.052Z,6.62
2019-05-01T09:26:45.253Z,5.97
2019-05-01T09:29:17.884Z,5.40
2019-05-01T09:31:49.458Z,6.95
2019-05-01T09:34:21.084Z,6.42
2019-05-01T09:36:50.726Z,7.28
2019-05-01T09:39:21.298Z,7.78
2019-05-01T09:41:50.926Z,7.47
2019-05-01T09:44:20.509Z,4.70
2019-05-01T09:46:50.483Z,8.83
2019-05-01T09:49:21.189Z,4.58
2019-05-01T09:51:55.338Z,7.17
2019-05-01T09:54:26.450Z,5.05
2019-05-01T09:56:56.036Z,4.62
2019-05-01T09:59:25.695Z,5.78
2019-05-01T10:01:55.833Z,5.87
2019-05-01T10:04:30.130Z,5.22
2019-05-01T10:06:58.523Z,5.85
2019-05-01T10:09:30.504Z,6.12
2019-05-01T10:12:00.428Z,6.72
2019-05-01T10:15:15.098Z,8.10
2019-05-01T10:17:47.960Z,6.42
2019-05-01T10:20:17.818Z,8.68
2019-05-01T10:22:47.637Z,8.05
2019-05-01T10:25:18.613Z,9.38
2019-05-01T10:27:59.400Z,6.47
2019-05-01T10:30:39.799Z,7.33
2019-05-01T10:33:20.654Z,10.85
2019-05-01T10:36:03.556Z,8.43
2019-05-01T10:38:33.217Z,15.23
2019-05-01T10:41:04.336Z,11.65
2019-05-01T10:43:34.590Z,8.85
2019-05-01T10:46:04.381Z,8.03
2019-05-01T10:48:34.059Z,11.75
2019-05-01T10:51:03.834Z,7.95
2019-05-01T10:53:33.506Z,12.88
2019-05-01T10:56:03.276Z,10.40
2019-05-01T10:58:32.929Z,9.88
2019-05-01T11:01:04.088Z,10.43
2019-05-01T11:03:34.088Z,9.43
2019-05-01T11:06:03.787Z,8.83
2019-05-01T11:08:33.275Z,11.78
2019-05-01T11:11:02.893Z,10.53
2019-05-01T11:13:32.345Z,14.65
2019-05-01T11:16:02.092Z,11.00
2019-05-01T11:18:31.661Z,10.13
2019-05-01T11:21:01.257Z,11.18
2019-05-01T11:23:30.802Z,15.55
2019-05-01T11:26:00.410Z,11.53
2019-05-01T11:28:29.827Z,14.15
2019-05-01T11:30:59.350Z,9.68
2019-05-01T11:33:31.155Z,9.65
2019-05-01T11:36:11.520Z,10.88
2019-05-01T11:38:59.172Z,13.55
2019-05-01T11:41:33.320Z,12.93
2019-05-01T11:44:03.291Z,11.68
2019-05-01T11:46:32.864Z,12.68
2019-05-01T11:49:02.394Z,14.50
2019-05-01T11:51:31.790Z,16.62
2019-05-01T11:54:02.302Z,18.05
2019-05-01T11:56:31.936Z,17.65
2019-05-01T11:59:01.472Z,17.37
2019-05-01T12:01:31.011Z,16.40
2019-05-01T12:04:00.619Z,21.40
2019-05-01T12:06:30.237Z,18.10
2019-05-01T12:08:59.768Z,16.00
2019-05-01T12:11:30.992Z,15.23
2019-05-01T12:14:00.887Z,23.15
2019-05-01T12:16:49.025Z,20.68
2019-05-01T12:19:19.146Z,21.68
2019-05-01T12:21:48.984Z,22.30
2019-05-01T12:24:18.764Z,21.00
2019-05-01T12:26:48.840Z,22.40
2019-05-01T12:29:18.689Z,22.22
2019-05-01T12:31:48.215Z,18.98
2019-05-01T12:34:18.235Z,40.65
2019-05-01T12:36:49.644Z,28.87
2019-05-01T12:39:19.870Z,21.82
2019-05-01T12:41:51.249Z,26.37
2019-05-01T12:44:23.570Z,23.62
2019-05-01T12:47:15.592Z,24.07
2019-05-01T12:49:46.669Z,26.73
2019-05-01T12:52:18.086Z,24.23
2019-05-01T12:54:51.982Z,26.10
2019-05-01T12:57:21.351Z,24.57
2019-05-01T12:59:51.164Z,25.65
2019-05-01T13:02:20.979Z,24.67
2019-05-01T13:04:50.757Z,22.58
2019-05-01T13:07:20.604Z,26.97
2019-05-01T13:09:50.131Z,28.25
2019-05-01T13:12:19.767Z,28.20
2019-05-01T13:15:09.506Z,26.10
2019-05-01T13:17:53.931Z,29.60
2019-05-01T13:20:34.289Z,26.23
2019-05-01T13:23:04.433Z,28.67
2019-05-01T13:25:34.199Z,25.77
2019-05-01T13:28:17.873Z,29.60
2019-05-01T13:30:55.295Z,27.45
2019-05-01T13:33:25.453Z,32.45
2019-05-01T13:35:56.503Z,29.65
2019-05-01T13:38:26.044Z,26.37
2019-05-01T13:40:55.684Z,29.35
2019-05-01T13:43:25.214Z,28.77
2019-05-01T13:45:54.828Z,26.33
2019-05-01T13:48:24.865Z,30.05
2019-05-01T13:50:54.651Z,32.90
2019-05-01T13:53:24.806Z,38.28
2019-05-01T13:55:54.427Z,36.50
2019-05-01T13:58:24.464Z,38.80
2019-05-01T14:00:54.513Z,36.50
2019-05-01T14:03:24.173Z,32.58
2019-05-01T14:05:53.769Z,31.07
2019-05-01T14:08:23.567Z,36.28
2019-05-01T14:10:53.251Z,32.23
2019-05-01T14:13:23.133Z,35.75
2019-05-01T14:15:53.018Z,34.70
2019-05-01T14:18:22.482Z,32.20
2019-05-01T14:20:54.075Z,33.05
2019-05-01T14:23:25.427Z,32.38
2019-05-01T14:26:05.187Z,34.40
2019-05-01T14:28:36.040Z,36.03
2019-05-01T14:31:06.411Z,34.00
2019-05-01T14:33:36.386Z,33.70
2019-05-01T14:36:06.089Z,34.27
2019-05-01T14:38:36.264Z,36.13
2019-05-01T14:41:06.002Z,30.10
2019-05-01T14:43:36.086Z,29.57
2019-05-01T14:46:06.434Z,35.13
2019-05-01T14:48:38.250Z,31.80
2019-05-01T14:51:08.224Z,31.73
2019-05-01T14:53:38.375Z,37.30
2019-05-01T14:56:08.105Z,39.38
2019-05-01T14:58:37.716Z,40.40
2019-05-01T15:01:07.536Z,39.13
2019-05-01T15:03:37.238Z,41.68
2019-05-01T15:06:06.838Z,37.48
2019-05-01T15:08:36.532Z,40.03
2019-05-01T15:11:06.212Z,35.25
2019-05-01T15:13:37.172Z,38.23
2019-05-01T15:16:23.543Z,33.90
2019-05-01T15:19:06.974Z,35.80
2019-05-01T15:21:36.654Z,34.98
2019-05-01T15:24:06.188Z,26.93
2019-05-01T15:26:35.952Z,45.00
2019-05-01T15:29:05.351Z,38.33
2019-05-01T15:31:34.999Z,33.18
2019-05-01T15:34:05.102Z,34.73
2019-05-01T15:36:34.812Z,44.35
2019-05-01T15:39:07.546Z,35.45
2019-05-01T15:41:54.932Z,39.33
2019-05-01T15:44:26.300Z,39.98
2019-05-01T15:46:55.871Z,38.40
2019-05-01T15:49:25.654Z,41.37
2019-05-01T15:51:55.238Z,42.25
2019-05-01T15:54:24.889Z,41.40
2019-05-01T15:56:55.047Z,29.18
2019-05-01T15:59:24.691Z,34.10
2019-05-01T16:01:54.247Z,27.80
2019-05-01T16:04:23.839Z,41.68
2019-05-01T16:06:53.341Z,40.40
2019-05-01T16:09:23.008Z,36.50
2019-05-01T16:12:06.426Z,45.92
2019-05-01T16:14:36.417Z,44.48
2019-05-01T16:17:06.341Z,46.53
2019-05-01T16:19:36.264Z,46.30
2019-05-01T16:22:05.836Z,45.67
2019-05-01T16:24:35.523Z,37.30
2019-05-01T16:27:05.566Z,47.75
2019-05-01T16:29:35.201Z,41.77
2019-05-01T16:32:04.803Z,33.45
2019-05-01T16:34:34.466Z,39.10
2019-05-01T16:37:04.234Z,41.55
2019-05-01T16:39:51.892Z,33.60
2019-05-01T16:42:22.734Z,39.55
2019-05-01T16:44:52.269Z,34.23
2019-05-01T16:47:22.200Z,40.90
2019-05-01T16:49:51.793Z,39.38
2019-05-01T16:52:23.182Z,39.50
2019-05-01T16:54:59.172Z,38.90
2019-05-01T16:57:25.030Z,44.80
2019-05-01T16:59:55.295Z,33.78
2019-05-01T17:02:42.987Z,44.65
2019-05-01T17:05:21.070Z,36.53
2019-05-01T17:07:52.368Z,34.50
2019-05-01T17:10:26.340Z,50.12
2019-05-01T17:12:56.789Z,49.00
2019-05-01T17:15:27.958Z,56.50
2019-05-01T17:17:58.044Z,42.33
2019-05-01T17:20:28.023Z,43.58
2019-05-01T17:22:58.277Z,47.50
2019-05-01T17:25:29.530Z,47.73
2019-05-01T17:28:02.912Z,43.10
2019-05-01T17:30:47.021Z,48.80
2019-05-01T17:33:21.743Z,45.17
2019-05-01T17:35:47.589Z,46.48
2019-05-01T17:38:17.051Z,42.08
2019-05-01T17:40:47.430Z,49.70
2019-05-01T17:43:18.097Z,45.45
2019-05-01T17:45:47.593Z,38.50
2019-05-01T17:48:17.126Z,43.90
2019-05-01T17:50:46.683Z,43.08
2019-05-01T17:53:16.055Z,48.10
2019-05-01T17:55:45.533Z,43.50
2019-05-01T17:58:15.009Z,50.10
2019-05-01T18:00:58.476Z,42.85
2019-05-01T18:03:46.034Z,42.38
2019-05-01T18:06:32.778Z,39.15
2019-05-01T18:09:08.048Z,49.98
2019-05-01T18:11:35.706Z,53.05
2019-05-01T18:14:06.312Z,42.13
2019-05-01T18:16:36.349Z,47.75
2019-05-01T18:19:09.871Z,41.50
2019-05-01T18:21:46.605Z,42.60
2019-05-01T18:24:31.708Z,38.33
2019-05-01T18:27:02.914Z,42.80
2019-05-01T18:29:35.565Z,40.67
2019-05-01T18:32:08.219Z,40.43
2019-05-01T18:34:39.394Z,43.73
2019-05-01T18:37:19.783Z,43.23
2019-05-01T18:39:50.923Z,40.52
2019-05-01T18:42:20.928Z,39.18
2019-05-01T18:44:50.348Z,35.33
2019-05-01T18:47:21.003Z,41.08
2019-05-01T18:49:50.711Z,28.15
2019-05-01T18:52:20.326Z,40.63
2019-05-01T18:54:49.939Z,36.17
2019-05-01T18:57:20.052Z,36.25
2019-05-01T18:59:49.924Z,36.50
2019-05-01T19:02:20.586Z,45.05
2019-05-01T19:04:50.867Z,46.00
2019-05-01T19:07:20.756Z,50.87
2019-05-01T19:09:50.393Z,50.38
2019-05-01T19:12:22.099Z,53.13
2019-05-01T19:14:51.708Z,54.70
2019-05-01T19:17:21.140Z,54.75
2019-05-01T19:19:50.652Z,50.20
2019-05-01T19:22:20.233Z,48.63
2019-05-01T19:24:50.005Z,53.48
2019-05-01T19:27:21.231Z,52.43
2019-05-01T19:29:51.115Z,53.00
2019-05-01T19:32:22.314Z,51.20
2019-05-01T19:34:52.172Z,52.38
2019-05-01T19:37:23.818Z,52.48
2019-05-01T19:39:54.966Z,54.40
2019-05-01T19:42:24.931Z,53.40
2019-05-01T19:44:56.426Z,49.03
2019-05-01T19:47:27.421Z,47.58
2019-05-01T19:50:06.826Z,49.65
2019-05-01T19:52:32.490Z,54.35
2019-05-01T19:55:01.311Z,50.63
2019-05-01T19:57:31.184Z,48.08
2019-05-01T20:00:00.839Z,52.55
2019-05-01T20:02:32.215Z,50.45
2019-05-01T20:05:02.350Z,52.73
2019-05-01T20:07:31.664Z,46.90
2019-05-01T20:10:01.203Z,49.18
2019-05-01T20:12:31.290Z,55.55
2019-05-01T20:15:00.728Z,47.05
2019-05-01T20:17:30.736Z,51.20
2019-05-01T20:20:00.759Z,47.30
2019-05-01T20:22:30.372Z,46.05
2019-05-01T20:25:00.235Z,49.35
2019-05-01T20:27:29.767Z,47.17
2019-05-01T20:29:59.386Z,41.83
2019-05-01T20:32:29.207Z,30.65
2019-05-01T20:34:59.430Z,44.00
2019-05-01T20:37:29.339Z,47.85
2019-05-01T20:40:10.350Z,50.43
2019-05-01T20:42:30.108Z,49.88
2019-05-01T20:45:05.414Z,47.78
2019-05-01T20:47:35.153Z,47.50
2019-05-01T20:50:04.625Z,46.58
2019-05-01T20:52:34.095Z,46.40
2019-05-01T20:55:04.407Z,48.65
2019-05-01T20:57:35.528Z,37.98
2019-05-01T21:00:11.391Z,49.15
2019-05-01T21:02:43.103Z,45.03
2019-05-01T21:05:25.702Z,44.53
2019-05-01T21:08:08.887Z,52.70
2019-05-01T21:10:50.309Z,49.85
2019-05-01T21:13:12.099Z,50.48
2019-05-01T21:15:41.968Z,49.13
2019-05-01T21:18:11.785Z,50.45
2019-05-01T21:20:41.496Z,50.50
2019-05-01T21:23:11.782Z,50.20
2019-05-01T21:25:41.404Z,47.38
2019-05-01T21:28:10.895Z,51.85
2019-05-01T21:30:43.883Z,49.88
2019-05-01T21:33:13.898Z,46.92
2019-05-01T21:35:44.500Z,50.78
2019-05-01T21:38:14.577Z,47.08
2019-05-01T21:40:44.701Z,49.42
2019-05-01T21:43:14.537Z,42.67
2019-05-01T21:45:44.121Z,52.13
2019-05-01T21:48:13.821Z,52.38
2019-05-01T21:50:43.971Z,45.67
2019-05-01T21:53:14.716Z,51.23
2019-05-01T21:55:44.281Z,50.08
2019-05-01T21:58:15.351Z,54.30
2019-05-01T22:00:45.289Z,49.35
2019-05-01T22:03:16.718Z,49.23
2019-05-01T22:05:46.483Z,52.27
2019-05-01T22:08:16.106Z,54.23
2019-05-01T22:10:52.018Z,53.15
2019-05-01T22:13:20.409Z,51.13
2019-05-01T22:15:56.468Z,48.02
2019-05-01T22:18:33.185Z,50.12
2019-05-01T22:21:04.527Z,51.00
2019-05-01T22:23:52.438Z,48.42
2019-05-01T22:26:22.348Z,43.10
2019-05-01T22:28:54.839Z,47.58
2019-05-01T22:31:42.459Z,59.35
2019-05-01T22:34:30.366Z,56.60
2019-05-01T22:36:59.995Z,54.10
2019-05-01T22:39:32.730Z,53.63
2019-05-01T22:42:02.257Z,57.70
2019-05-01T22:44:31.829Z,57.35
2019-05-01T22:47:01.640Z,51.90
2019-05-01T22:49:31.178Z,52.17
2019-05-01T22:52:01.996Z,55.78
2019-05-01T22:54:31.626Z,51.40
2019-05-01T22:57:01.168Z,56.63
2019-05-01T22:59:30.844Z,54.08
2019-05-01T23:02:08.236Z,47.25
2019-05-01T23:04:38.109Z,49.98
2019-05-01T23:07:11.796Z,54.85
2019-05-01T23:09:39.511Z,48.95
2019-05-01T23:12:09.154Z,48.20
2019-05-01T23:14:38.908Z,49.20
2019-05-01T23:17:11.109Z,48.00
2019-05-01T23:19:40.599Z,47.25
2019-05-01T23:22:10.119Z,46.18
2019-05-01T23:24:39.921Z,32.53
2019-05-01T23:27:09.734Z,36.58
2019-05-01T23:29:39.228Z,35.38
2019-05-01T23:32:09.032Z,44.13
2019-05-01T23:34:38.456Z,34.40
2019-05-01T23:37:08.154Z,37.60
2019-05-01T23:39:40.217Z,38.08
2019-05-01T23:42:09.101Z,36.80
2019-05-01T23:44:42.924Z,24.57
2019-05-01T23:47:09.798Z,30.97
2019-05-01T23:49:39.550Z,38.30
2019-05-01T23:52:10.213Z,38.40
2019-05-01T23:54:39.687Z,38.55
2019-05-01T23:57:09.528Z,38.25
2019-05-01T23:59:39.624Z,36.90
